This is the latest recevied weather packets stored in our database for station/object LZ1ASO-10. If no packets are shown the sender has not sent any weather packets the latest 1 day(s).
| Time | Temp. | Humidity | Pressure | Rain* | Wind** | Luminosity | Snow |
|---|---|---|---|---|---|---|---|
| 1778099287 | 18.89° C | 44% | 1018.7 hPa | - | - | - | - |
| 1778093885 | 20° C | 43% | 1018.3 hPa | - | - | - | - |
| 1778092985 | 20° C | 42% | 1018.2 hPa | - | - | - | - |
| 1778092085 | 20° C | 42% | 1018.1 hPa | - | - | - | - |
| 1778091185 | 20.56° C | 42% | 1017.9 hPa | - | - | - | - |
| 1778090285 | 20.56° C | 41% | 1017.9 hPa | - | - | - | - |
| 1778085784 | 23.33° C | 37% | 1017.6 hPa | - | - | - | - |
| 1778084884 | 23.33° C | 35% | 1017.7 hPa | - | - | - | - |
| 1778083084 | 23.89° C | 35% | 1017.7 hPa | - | - | - | - |
| 1778078583 | 25° C | 33% | 1018 hPa | - | - | - | - |
| 1778077683 | 25° C | 33% | 1018 hPa | - | - | - | - |
| 1778076783 | 25.56° C | 33% | 1018 hPa | - | - | - | - |
| 1778069582 | 25° C | 32% | 1018.4 hPa | - | - | - | - |
| 1778064181 | 22.78° C | 35% | 1018.9 hPa | - | - | - | - |
| 1778063281 | 22.22° C | 36% | 1018.9 hPa | - | - | - | - |
| 1778062381 | 22.22° C | 37% | 1018.9 hPa | - | - | - | - |
| 1778061480 | 21.67° C | 37% | 1019 hPa | - | - | - | - |
| 1778060580 | 21.67° C | 37% | 1019 hPa | - | - | - | - |
| 1778059680 | 21.11° C | 37% | 1019 hPa | - | - | - | - |
| 1778058780 | 21.11° C | 38% | 1018.9 hPa | - | - | - | - |
| 1778054279 | 19.44° C | 39% | 1018.4 hPa | - | - | - | - |
| 1778053379 | 19.44° C | 39% | 1018.4 hPa | - | - | - | - |
| 1778052479 | 18.89° C | 39% | 1018.3 hPa | - | - | - | - |
| 1778051579 | 18.89° C | 40% | 1018.1 hPa | - | - | - | - |
| 1778050679 | 18.33° C | 40% | 1018 hPa | - | - | - | - |
* Rain since midnight (hover to see other rain measurements)
** Current wind speed in m/s (hover to see current wind gust speed)